Echo Valley, Pennsylvania
Current Conditions -  °F | °C
As of 1:58 AM on Thursday 27 Nov 2014 (Local Time) from KMUI Reporting Station
Overcast Overcast  
Wind Chill: 27°   Ceiling: 7000
Heat Index: 34°   Visibility: 10mi
Dew Point: 29°   Wind: 8mph
Humidity: 82%   Direction: 310°NW
Pressure: 29.96"   Gusts: NA
Location:  40.6079°N, 76.4334°W
Report Text: KMUI 270658Z AUTO 31007KT 10SM FEW047 OVC070 01/M02 A2996 RMK AO2 SLP153 T00091019 $
Loading
Personal Weather Stations






























Interactive Weather Map New forecast layout! Learn more

10-Day Weather Forecast

Advertisements
Track Severe Weather on mobile